M I D A S
Marine Information and Data Acquisition System
Tripno 749 of the Zeeleeuw from 2004-07-15 07:01:23 to 2004-07-15 15:27:17
Back to CruiseResearch ActivitiesStationsMapUnderway DataData graphs

EquipmentUnitsComment
TimeDGPSUTC
LatitudeDGPSDM.mWGS84
LongitudeDGPSDM.mWGS84
TemperatureSBE03/SBE38deg celciusITS90
ConductivitySBE21S/mITS90
SalinitySBE21 Practical Salinity Units
ChlorophylAChelsea fluorimeterg/lCalibrated in Aceton
Missing or incorrect values are displayed as -999
Sea surface data collected by the RV Zeeleeuw from 2004-07-15 07:01:23 to 2004-07-15 15:27:17
Time Latitude Longitude Temperature Conductivity Salinity ChlorophylA
2004-07-15 07:02:25 51°13.596 2°56.097 20.704993 4.67004 34.393943 -0.612702
2004-07-15 07:03:25 51°13.605 2°56.055 20.711002 4.670145 34.394229 -0.646411
2004-07-15 07:04:25 51°13.589 2°56.085 20.714326 4.670356 34.395385 -0.646411
2004-07-15 07:05:25 51°13.551 2°56.15 20.719133 4.670356 34.39363 -0.646411
2004-07-15 07:06:25 51°13.539 2°56.239 20.725782 4.670673 34.397998 -0.646411
2004-07-15 07:07:25 51°13.535 2°56.239 20.721096 4.670778 34.395358 -0.646411
2004-07-15 07:08:25 51°13.543 2°56.252 20.731349 4.670778 34.395943 -0.612702
2004-07-15 07:09:25 51°13.533 2°56.251 20.737956 4.670989 34.395929 -0.646411
2004-07-15 07:10:25 51°13.525 2°56.265 20.744163 4.671095 34.395045 -0.646411
2004-07-15 07:11:25 51°13.54 2°56.234 20.75165 4.671306 34.399127 -0.646411
2004-07-15 07:12:23 51°13.555 2°56.165 20.756294 4.671411 34.397072 -0.646411
2004-07-15 07:13:25 51°13.575 2°56.097 20.762259 4.671411 34.397072 -0.612702
2004-07-15 07:14:24 51°13.597 2°56.036 20.768063 4.671517 34.396188 -0.646411
2004-07-15 07:15:25 51°13.623 2°55.977 20.773626 4.671622 34.395304 -0.646411
2004-07-15 07:16:25 51°13.652 2°55.917 20.778869 4.671833 34.39646 -0.646411
2004-07-15 07:17:25 51°13.695 2°55.812 20.784272 4.671833 34.394705 -0.612702
2004-07-15 07:18:25 51°13.775 2°55.679 20.790154 4.672044 34.395862 -0.646411
2004-07-15 07:19:25 51°13.89 2°55.58 20.796636 4.67215 34.396732 -0.680121
2004-07-15 07:20:25 51°14.023 2°55.49 20.803118 4.672255 34.395848 -0.646411
2004-07-15 07:21:25 51°14.172 2°55.379 20.809678 4.672466 34.39642 -0.646411
2004-07-15 07:22:25 51°14.302 2°55.179 20.816039 4.672572 34.395535 -0.612702
2004-07-15 07:23:25 51°14.428 2°54.939 20.817199 4.672888 34.397562 -0.646411
2004-07-15 07:24:25 51°14.561 2°54.662 20.823518 4.672888 34.398732 -0.612702
2004-07-15 07:25:23 51°14.661 2°54.357 20.831237 4.672993 34.396678 -0.646411
2004-07-15 07:26:25 51°14.776 2°54.036 20.838915 4.673099 34.396964 -0.646411
2004-07-15 07:27:24 51°14.877 2°53.729 20.846152 4.673099 34.396379 -0.646411
2004-07-15 07:28:25 51°14.983 2°53.412 20.853468 4.673099 34.39521 -0.646411
2004-07-15 07:29:25 51°15.088 2°53.099 20.860344 4.67331 34.395781 -0.646411
2004-07-15 07:30:25 51°15.186 2°52.779 20.86702 4.673521 34.398107 -0.680121
2004-07-15 07:31:24 51°15.25 2°52.438 20.874574 4.67331 34.394612 -0.646411
2004-07-15 07:32:24 51°15.294 2°52.08 20.882966 4.673732 34.396924 -0.646411
2004-07-15 07:33:25 51°15.304 2°51.705 20.891558 4.673837 34.397794 -0.612702
2004-07-15 07:34:25 51°15.265 2°51.338 20.898829 4.673837 34.396625 -0.680121
2004-07-15 07:35:25 51°15.219 2°50.97 20.908577 4.673943 34.396911 -0.646411
2004-07-15 07:36:25 51°15.184 2°50.6 20.916207 4.674154 34.398067 -0.646411
2004-07-15 07:37:25 51°15.15 2°50.231 20.924195 4.674048 34.396612 -0.646411
2004-07-15 07:38:25 51°15.116 2°49.863 20.932302 4.673943 34.395741 -0.646411
2004-07-15 07:39:25 51°15.084 2°49.495 20.940248 4.673943 34.394572 -0.646411
2004-07-15 07:40:25 51°15.046 2°49.128 20.947835 4.674048 34.394858 -0.646411
2004-07-15 07:41:25 51°15.008 2°48.761 20.955739 4.674154 34.395143 -0.646411
2004-07-15 07:42:25 51°14.971 2°48.395 20.964601 4.673943 34.393403 -0.612702
2004-07-15 07:43:25 51°14.932 2°48.032 20.973702 4.674048 34.393104 -0.646411
2004-07-15 07:44:25 51°14.894 2°47.67 20.982641 4.674048 34.393104 -0.646411
2004-07-15 07:45:25 51°14.858 2°47.312 20.991659 4.673943 34.392234 -0.646411
2004-07-15 07:46:25 51°14.822 2°46.955 21.000876 4.673732 34.390493 -0.612702
2004-07-15 07:47:25 51°14.785 2°46.6 21.011128 4.674048 34.393104 -0.646411
2004-07-15 07:48:25 51°14.752 2°46.245 21.021937 4.673837 34.391364 -0.646411
2004-07-15 07:49:25 51°14.716 2°45.89 21.031947 4.673837 34.390779 -0.680121
2004-07-15 07:50:25 51°14.679 2°45.529 21.042036 4.673837 34.391364 -0.646411
2004-07-15 07:51:25 51°14.64 2°45.166 21.050887 4.673837 34.390779 -0.646411
2004-07-15 07:52:25 51°14.601 2°44.803 21.060454 4.673732 34.389909 -0.646411
2004-07-15 07:53:25 51°14.562 2°44.439 21.069741 4.673732 34.389324 -0.646411
2004-07-15 07:54:25 51°14.523 2°44.075 21.080263 4.673732 34.38874 -0.646411
2004-07-15 07:55:25 51°14.506 2°43.711 21.090145 4.673732 34.389324 -0.646411
2004-07-15 07:56:25 51°14.493 2°43.344 21.099628 4.673732 34.38874 -0.646411
2004-07-15 07:57:25 51°14.48 2°42.977 21.108631 4.673415 34.385545 -0.646411
2004-07-15 07:58:25 51°14.475 2°42.611 21.119186 4.673626 34.387285 -0.680121
2004-07-15 07:59:25 51°14.47 2°42.249 21.129262 4.673732 34.388156 -0.612702
2004-07-15 08:00:25 51°14.465 2°41.891 21.139496 4.673521 34.385831 -0.646411
2004-07-15 08:01:24 51°14.459 2°41.538 21.149052 4.673626 34.387285 -0.680121
2004-07-15 08:02:25 51°14.429 2°41.179 21.157054 4.673626 34.38787 -0.646411
2004-07-15 08:03:25 51°14.394 2°40.824 21.166527 4.673415 34.386129 -0.680121
2004-07-15 08:04:25 51°14.361 2°40.47 21.176397 4.67331 34.385844 -0.646411
2004-07-15 08:05:25 51°14.33 2°40.118 21.18551 4.672888 34.382363 -0.646411
2004-07-15 08:06:25 51°14.298 2°39.767 21.19494 4.672888 34.382947 -0.646411
2004-07-15 08:07:25 51°14.267 2°39.414 21.204488 4.672888 34.382947 -0.646411
2004-07-15 08:08:25 51°14.216 2°39.067 21.2132 4.672782 34.382077 -0.646411
2004-07-15 08:09:25 51°14.163 2°38.716 21.222348 4.672782 34.382661 -0.680121
2004-07-15 08:10:25 51°14.099 2°38.367 21.230262 4.672466 34.380635 -0.646411
2004-07-15 08:11:25 51°14.025 2°38.021 21.23897 4.672677 34.382375 -0.680121
2004-07-15 08:12:23 51°13.954 2°37.685 21.247837 4.672255 34.37831 -0.680121
2004-07-15 08:13:25 51°13.88 2°37.325 21.25694 4.672255 34.37831 -0.646411
2004-07-15 08:14:25 51°13.791 2°36.987 21.265168 4.67236 34.379765 -0.646411
2004-07-15 08:15:25 51°13.695 2°36.655 21.273912 4.671938 34.376868 -0.646411
2004-07-15 08:16:25 51°13.601 2°36.323 21.283609 4.672149 34.378024 -0.680121
2004-07-15 08:17:25 51°13.497 2°35.999 21.291714 4.671833 34.375998 -0.680121
2004-07-15 08:18:25 51°13.393 2°35.676 21.300813 4.672044 34.378323 -0.646411
2004-07-15 08:19:25 51°13.29 2°35.353 21.309473 4.671938 34.378621 -0.680121
2004-07-15 08:20:25 51°13.186 2°35.03 21.31833 4.671516 34.375724 -0.680121
2004-07-15 08:21:23 51°13.086 2°34.717 21.327663 4.671411 34.374854 -0.646411
2004-07-15 08:22:25 51°12.978 2°34.385 21.336637 4.6712 34.375451 -0.646411
2004-07-15 08:23:25 51°12.876 2°34.066 21.345412 4.671094 34.375749 -0.680121
2004-07-15 08:24:25 51°12.772 2°33.748 21.354583 4.670883 34.374009 -0.646411
2004-07-15 08:25:25 51°12.67 2°33.431 21.363554 4.670672 34.372852 -0.680121
2004-07-15 08:26:25 51°12.567 2°33.116 21.372643 4.670461 34.37228 -0.646411
2004-07-15 08:27:25 51°12.464 2°32.801 21.381294 4.670145 34.370838 -0.680121
2004-07-15 08:28:25 51°12.361 2°32.487 21.390262 4.669934 34.370266 -0.646411
2004-07-15 08:29:25 51°12.26 2°32.167 21.399585 4.669934 34.372019 -0.646411
2004-07-15 08:30:25 51°12.162 2°31.844 21.409383 4.669723 34.371447 -0.646411
2004-07-15 08:31:25 51°12.065 2°31.521 21.418942 4.669512 34.37029 -0.680121
2004-07-15 08:32:25 51°11.968 2°31.197 21.428024 4.669301 34.370302 -0.680121
2004-07-15 08:33:25 51°11.876 2°30.871 21.438056 4.66909 34.36973 -0.646411
2004-07-15 08:34:25 51°11.79 2°30.541 21.446938 4.668774 34.368288 -0.646411
2004-07-15 08:35:25 51°11.704 2°30.21 21.456135 4.668457 34.366845 -0.646411
2004-07-15 08:36:25 51°11.619 2°29.88 21.466401 4.668457 34.368598 -0.646411
2004-07-15 08:37:25 51°11.534 2°29.551 21.475675 4.668141 34.367155 -0.646411
2004-07-15 08:38:25 51°11.451 2°29.223 21.485383 4.667824 34.365712 -0.646411
2004-07-15 08:39:27 51°11.377 2°28.88 21.495962 4.667613 34.365725 -0.646411
2004-07-15 08:40:27 51°11.314 2°28.549 21.504955 4.667402 34.365737 -0.646411
2004-07-15 08:41:27 51°11.247 2°28.217 21.514382 4.667086 34.363709 -0.646411
2004-07-15 08:42:27 51°11.191 2°27.884 21.522581 4.666664 34.36198 -0.680121
2004-07-15 08:43:27 51°11.14 2°27.549 21.532362 4.666558 34.362278 -0.646411
2004-07-15 08:44:27 51°11.088 2°27.216 21.541628 4.666453 34.362577 -0.680121
2004-07-15 08:45:27 51°11.038 2°26.888 21.549902 4.665925 34.358807 -0.680121
2004-07-15 08:46:27 51°10.988 2°26.561 21.55774 4.666031 34.360847 -0.646411
2004-07-15 08:47:27 51°10.949 2°26.235 21.566131 4.665609 34.357949 -0.680121
2004-07-15 08:48:27 51°10.914 2°25.911 21.57563 4.665504 34.358247 -0.646411
2004-07-15 08:49:24 51°10.878 2°25.601 21.583504 4.665504 34.358832 -0.646411
2004-07-15 08:50:31 51°10.833 2°25.236 21.590785 4.665082 34.356517 -0.680121
2004-07-15 08:51:32 51°10.793 2°24.903 21.598302 4.664976 34.356231 -0.646411
2004-07-15 08:52:32 51°10.745 2°24.577 21.606332 4.664976 34.356231 -0.646411
2004-07-15 08:53:32 51°10.676 2°24.256 21.61452 4.664976 34.356816 -0.680121
2004-07-15 08:54:32 51°10.581 2°23.947 21.621877 4.664765 34.355074 -0.646411
2004-07-15 08:55:32 51°10.456 2°23.664 21.6303 4.664554 34.353332 -0.646411
2004-07-15 08:56:32 51°10.329 2°23.385 21.636824 4.664871 34.356529 -0.646411
2004-07-15 08:57:32 51°10.204 2°23.105 21.643506 4.664343 34.353928 -0.680121
2004-07-15 08:58:32 51°10.079 2°22.826 21.652678 4.664132 34.352771 -0.680121
2004-07-15 08:59:31 51°9.957 2°22.552 21.660861 4.664027 34.353069 -0.646411
2004-07-15 09:00:33 51°9.84 2°22.254 21.669121 4.663605 34.351924 -0.612702
2004-07-15 09:01:35 51°9.724 2°21.955 21.676511 4.664027 34.355993 -0.680121
2004-07-15 09:02:31 51°9.623 2°21.686 21.683861 4.663605 34.354263 -0.646411
2004-07-15 09:03:39 51°9.51 2°21.356 21.691329 4.663183 34.352533 -0.680121
2004-07-15 09:04:40 51°9.424 2°21.055 21.69844 4.663288 34.355744 -0.646411
2004-07-15 09:05:39 51°9.341 2°20.764 21.707329 4.662866 34.353428 -0.646411
2004-07-15 09:06:39 51°9.278 2°20.455 21.717243 4.66255 34.351984 -0.646411
2004-07-15 09:07:40 51°9.24 2°20.13 21.72605 4.662128 34.350839 -0.680121
2004-07-15 09:08:39 51°9.204 2°19.817 21.7345 4.662128 34.351424 -0.646411
2004-07-15 09:09:40 51°9.195 2°19.488 21.7437 4.661812 34.35115 -0.646411
2004-07-15 09:10:39 51°9.186 2°19.171 21.754161 4.66139 34.348249 -0.646411
2004-07-15 09:11:39 51°9.177 2°18.845 21.762845 4.66139 34.349419 -0.646411
2004-07-15 09:12:39 51°9.171 2°18.521 21.770739 4.661284 34.350303 -0.646411
2004-07-15 09:13:39 51°9.171 2°18.195 21.77946 4.661073 34.349145 -0.646411
2004-07-15 09:14:40 51°9.169 2°17.867 21.788417 4.660651 34.347414 -0.646411
2004-07-15 09:15:40 51°9.167 2°17.544 21.79686 4.660229 34.345098 -0.646411
2004-07-15 09:16:40 51°9.165 2°17.222 21.805224 4.660546 34.348883 -0.646411
2004-07-15 09:17:39 51°9.163 2°16.903 21.81189 4.66044 34.348596 -0.646411
2004-07-15 09:18:40 51°9.168 2°16.575 21.818358 4.660124 34.345397 -0.646411
2004-07-15 09:19:39 51°9.174 2°16.258 21.825812 4.660018 34.344525 -0.646411
2004-07-15 09:20:39 51°9.177 2°15.938 21.831924 4.659702 34.341326 -0.680121
2004-07-15 09:21:44 51°9.176 2°15.592 21.837444 4.659807 34.342197 -0.646411
2004-07-15 09:22:44 51°9.176 2°15.274 21.84529 4.660124 34.342472 -0.680121
2004-07-15 09:23:44 51°9.177 2°14.957 21.852426 4.660229 34.342173 -0.646411
2004-07-15 09:24:43 51°9.132 2°14.657 21.86027 4.66044 34.342161 -0.646411
2004-07-15 09:25:44 51°9.019 2°14.387 18.475696 4.604112 34.22029 0.93793
2004-07-15 09:26:43 51°8.896 2°14.142 16.649565 4.532716 34.730416 -0.14077
2004-07-15 09:27:44 51°8.755 2°13.902 16.54766 4.431045 34.595358 -0.511574
2004-07-15 09:28:43 51°8.621 2°13.67 16.538346 4.422398 34.601145 -0.545283
2004-07-15 09:29:44 51°8.483 2°13.428 16.524224 4.419972 34.603483 -0.511574
2004-07-15 09:30:44 51°8.347 2°13.188 16.516013 4.418707 34.600683 -0.511574
2004-07-15 09:31:44 51°8.212 2°12.948 16.519331 4.41818 34.604994 -0.511574
2004-07-15 09:32:44 51°8.077 2°12.708 16.517204 4.417652 34.609308 -0.511574
2004-07-15 09:33:44 51°7.941 2°12.47 16.512907 4.417863 34.609881 -0.545283
2004-07-15 09:34:44 51°7.807 2°12.231 16.516183 4.417442 34.609374 -0.511574
2004-07-15 09:35:43 51°7.674 2°11.997 16.518183 4.417969 34.613361 -0.511574
2004-07-15 09:36:44 51°7.536 2°11.755 16.511418 4.417758 34.615343 -0.511574
2004-07-15 09:37:44 51°7.401 2°11.518 16.515119 4.417758 34.614704 -0.511574
2004-07-15 09:38:43 51°7.267 2°11.286 16.51597 4.417758 34.614066 -0.511574
2004-07-15 09:39:44 51°7.129 2°11.045 16.518863 4.417863 34.614991 -0.511574
2004-07-15 09:40:44 51°6.992 2°10.81 16.522565 4.418074 34.615563 -0.511574
2004-07-15 09:41:43 51°6.845 2°10.597 16.533327 4.418813 34.617568 -0.511574
2004-07-15 09:42:44 51°6.694 2°10.374 16.529201 4.418813 34.615652 -0.545283
2004-07-15 09:43:44 51°6.553 2°10.145 16.530094 4.418391 34.616422 -0.511574
2004-07-15 09:44:43 51°6.428 2°9.902 16.550722 4.418602 34.610609 -0.444155
2004-07-15 09:45:45 51°6.297 2°9.645 16.557781 4.41934 34.605593 -0.410446
2004-07-15 09:46:44 51°6.197 2°9.453 16.571897 4.420183 34.600229 -0.376736
2004-07-15 09:47:44 51°6.152 2°9.371 16.57534 4.420816 34.599397 -0.309317
2004-07-15 09:48:44 51°6.138 2°9.369 16.581376 4.420816 34.59621 -0.309317
2004-07-15 09:49:43 51°6.134 2°9.396 16.586349 4.421449 34.599841 -0.241899
2004-07-15 09:50:44 51°6.134 2°9.437 16.577933 4.421765 34.601338 -0.208189
2004-07-15 09:51:43 51°6.129 2°9.482 16.581674 4.421027 34.59487 -0.208189
2004-07-15 09:52:44 51°6.094 2°9.502 16.589324 4.42166 34.597865 -0.208189
2004-07-15 09:53:44 51°6.063 2°9.468 16.594679 4.422398 34.59987 -0.208189
2004-07-15 09:54:44 51°6.049 2°9.398 16.598631 4.422609 34.598531 -0.241899
2004-07-15 09:55:43 51°6.051 2°9.326 16.597951 4.423136 34.599964 -0.275608
2004-07-15 09:56:44 51°6.062 2°9.257 16.598801 4.423242 34.600888 -0.275608
2004-07-15 09:57:43 51°6.085 2°9.2 16.595529 4.423242 34.600888 -0.309317
2004-07-15 09:58:43 51°6.114 2°9.147 16.598249 4.423453 34.602098 -0.275608
2004-07-15 09:59:44 51°6.139 2°9.095 16.613503 4.42398 34.601619 -0.275608
2004-07-15 10:00:44 51°6.155 2°9.043 16.614183 4.424823 34.601999 -0.275608
2004-07-15 10:01:44 51°6.163 2°8.989 16.614863 4.425245 34.603782 -0.309317
2004-07-15 10:02:43 51°6.157 2°8.93 16.613291 4.425456 34.603081 -0.343027
2004-07-15 10:03:44 51°6.149 2°8.86 16.607767 4.424929 34.604196 -0.376736
2004-07-15 10:04:44 51°6.139 2°8.792 16.600289 4.424296 34.605026 -0.376736
2004-07-15 10:05:43 51°6.127 2°8.725 16.604793 4.424613 34.60716 -0.343027
2004-07-15 10:06:43 51°6.113 2°8.657 16.606833 4.425245 34.608878 -0.343027
2004-07-15 10:07:44 51°6.094 2°8.591 16.612484 4.425351 34.60789 -0.343027
2004-07-15 10:08:44 51°6.073 2°8.528 16.613503 4.425667 34.611298 -0.309317
2004-07-15 10:09:44 51°6.053 2°8.469 16.615755 4.425773 34.608399 -0.208189
2004-07-15 10:10:42 51°6.033 2°8.411 16.619621 4.425773 34.603303 -0.107061
2004-07-15 10:11:44 51°6.011 2°8.349 16.621108 4.424929 34.596554 -0.039642
2004-07-15 10:12:44 51°5.989 2°8.292 16.624676 4.424507 34.588405 -0.005933
2004-07-15 10:13:43 51°5.968 2°8.235 16.633002 4.424296 34.58465 0.027777
2004-07-15 10:14:44 51°5.943 2°8.177 16.640307 4.42419 34.57482 0.128905
2004-07-15 10:15:44 51°5.92 2°8.119 16.654745 4.424296 34.564935 0.095195
2004-07-15 10:16:43 51°5.901 2°8.06 16.658269 4.424612 34.560712 0.128905
2004-07-15 10:17:44 51°5.877 2°8 16.662727 4.424295 34.554769 0.095195
2004-07-15 10:18:45 51°5.856 2°7.937 16.673892 4.424084 34.549114 0.196324
2004-07-15 10:19:44 51°5.832 2°7.876 16.681278 4.424612 34.542298 0.162614
2004-07-15 10:20:44 51°5.811 2°7.811 16.692567 4.424822 34.537796 0.196324
2004-07-15 10:21:44 51°5.791 2°7.746 16.711916 4.425139 34.527878 0.128905
2004-07-15 10:22:44 51°5.769 2°7.686 16.733889 4.425982 34.518138 0.162614
2004-07-15 10:23:43 51°5.754 2°7.623 16.758441 4.427037 34.509618 0.162614
2004-07-15 10:24:43 51°5.741 2°7.559 16.768488 4.428091 34.499844 0.162614
2004-07-15 10:25:44 51°5.73 2°7.496 16.771667 4.428407 34.500075 0.128905
2004-07-15 10:26:43 51°5.722 2°7.43 16.763783 4.42904 34.499273 0.061486
2004-07-15 10:27:43 51°5.724 2°7.361 16.773532 4.428513 34.501627 0.095195
2004-07-15 10:28:44 51°5.744 2°7.291 16.768488 4.429357 34.503929 0.095195
2004-07-15 10:29:44 51°5.781 2°7.227 16.772261 4.428829 34.499962 0.027777
2004-07-15 10:30:44 51°5.847 2°7.183 16.760137 4.428829 34.503755 0.027777
2004-07-15 10:31:44 51°5.929 2°7.181 16.762723 4.428197 34.502029 0.027777
2004-07-15 10:32:44 51°5.992 2°7.204 16.756321 4.428408 34.508928 0.095195
2004-07-15 10:33:44 51°6.04 2°7.233 16.74254 4.428935 34.515427 0.061486
2004-07-15 10:34:43 51°6.092 2°7.269 16.729647 4.427986 34.521068 0.128905
2004-07-15 10:35:45 51°6.15 2°7.362 16.704661 4.427881 34.529013 0.128905
2004-07-15 10:36:44 51°6.176 2°7.506 16.694986 4.426404 34.532594 0.128905
2004-07-15 10:37:43 51°6.183 2°7.629 16.691931 4.425772 34.53721 0.162614
2004-07-15 10:38:43 51°6.185 2°7.734 16.691039 4.425877 34.538132 0.162614
2004-07-15 10:39:44 51°6.185 2°7.831 16.687687 4.425666 34.538192 0.162614
2004-07-15 10:40:44 51°6.185 2°7.918 16.694307 4.425772 34.535942 0.196324
2004-07-15 10:41:43 51°6.184 2°8 16.703006 4.426404 34.534496 0.162614
2004-07-15 10:42:43 51°6.184 2°8.083 16.708352 4.42651 34.530346 0.162614
2004-07-15 10:43:43 51°6.185 2°8.167 16.715352 4.426826 34.528673 0.263742
2004-07-15 10:44:44 51°6.186 2°8.251 16.716158 4.426931 34.526426 0.230033
2004-07-15 10:45:45 51°6.187 2°8.338 16.726763 4.427037 34.522913 0.230033
2004-07-15 10:46:43 51°6.189 2°8.421 16.727569 4.427881 34.527113 0.230033
2004-07-15 10:47:45 51°6.191 2°8.513 16.731598 4.427248 34.519688 0.263742
2004-07-15 10:48:43 51°6.195 2°8.597 16.735755 4.42788 34.52078 0.230033
2004-07-15 10:49:44 51°6.204 2°8.687 16.731514 4.427459 34.517731 0.263742
2004-07-15 10:50:43 51°6.22 2°8.777 16.738299 4.427775 34.519226 0.297452
2004-07-15 10:51:43 51°6.236 2°8.874 16.739911 4.427986 34.519168 0.263742
2004-07-15 10:52:44 51°6.245 2°8.973 16.735755 4.428197 34.521009 0.263742
2004-07-15 10:53:44 51°6.253 2°9.068 16.735543 4.428302 34.52193 0.263742
2004-07-15 10:54:44 51°6.268 2°9.159 16.726084 4.428302 34.526995 0.230033
2004-07-15 10:55:44 51°6.292 2°9.251 16.732404 4.428092 34.531488 0.263742
2004-07-15 10:56:44 51°6.316 2°9.345 16.714631 4.428092 34.533389 0.263742
2004-07-15 10:57:45 51°6.344 2°9.441 16.711789 4.427775 34.53823 0.196324
2004-07-15 10:58:44 51°6.373 2°9.531 16.702624 4.42767 34.542381 0.230033
2004-07-15 10:59:43 51°6.401 2°9.621 16.703727 4.427564 34.545898 0.230033
2004-07-15 11:00:45 51°6.431 2°9.712 16.697956 4.427986 34.550218 0.162614
2004-07-15 11:01:45 51°6.462 2°9.797 16.689384 4.428197 34.558405 0.162614
2004-07-15 11:02:45 51°6.496 2°9.878 16.67593 4.427881 34.564526 0.128905
2004-07-15 11:03:43 51°6.531 2°9.954 16.678222 4.428198 34.571101 0.128905
2004-07-15 11:04:43 51°6.569 2°10.028 16.67402 4.428303 34.573929 0.061486
2004-07-15 11:05:43 51°6.607 2°10.097 16.673001 4.429042 34.584195 -0.005933
2004-07-15 11:06:43 51°6.646 2°10.163 16.672704 4.429147 34.582575 -0.005933
2004-07-15 11:07:44 51°6.681 2°10.243 16.666675 4.429463 34.58979 -0.005933
2004-07-15 11:08:43 51°6.713 2°10.337 16.657165 4.428936 34.595986 -0.039642
2004-07-15 11:09:44 51°6.744 2°10.446 16.658439 4.429147 34.598467 -0.039642
2004-07-15 11:10:43 51°6.761 2°10.549 16.648588 4.429464 34.601871 -0.17448
2004-07-15 11:11:44 51°6.769 2°10.643 16.638481 4.429042 34.60836 -0.241899
2004-07-15 11:12:43 51°6.772 2°10.72 16.637886 4.429358 34.610492 -0.241899
2004-07-15 11:13:43 51°6.768 2°10.823 16.637291 4.429147 34.610556 -0.309317
2004-07-15 11:14:44 51°6.778 2°10.935 16.637886 4.428831 34.609061 -0.309317
2004-07-15 11:15:44 51°6.798 2°11.036 16.633129 4.428409 34.610462 -0.241899
2004-07-15 11:16:44 51°6.824 2°11.123 16.641199 4.42862 34.611034 -0.275608
2004-07-15 11:17:44 51°6.857 2°11.194 16.646592 4.428937 34.60871 -0.309317
2004-07-15 11:18:45 51°6.891 2°11.249 16.637461 4.428515 34.605656 -0.343027
2004-07-15 11:19:45 51°6.925 2°11.291 16.630538 4.427565 34.601806 -0.343027
2004-07-15 11:20:45 51°6.965 2°11.316 16.625781 4.42746 34.606612 -0.309317
2004-07-15 11:21:44 51°7.007 2°11.334 16.623912 4.426194 34.598082 -0.343027
2004-07-15 11:22:44 51°7.049 2°11.346 16.618771 4.426089 34.601615 -0.275608
2004-07-15 11:23:44 51°7.089 2°11.358 16.617454 4.426405 34.607569 -0.241899
2004-07-15 11:24:43 51°7.128 2°11.37 16.615797 4.425351 34.600884 -0.275608
2004-07-15 11:25:44 51°7.165 2°11.376 16.612186 4.425878 34.606774 -0.309317
2004-07-15 11:26:44 51°7.2 2°11.381 16.613376 4.425667 34.604927 -0.275608
2004-07-15 11:27:43 51°7.235 2°11.384 16.60866 4.425667 34.608112 -0.241899
2004-07-15 11:28:44 51°7.271 2°11.386 16.612908 4.425667 34.606838 -0.275608
2004-07-15 11:29:45 51°7.306 2°11.38 16.609339 4.425562 34.607826 -0.275608
2004-07-15 11:30:44 51°7.358 2°11.353 16.615585 4.426089 34.610532 -0.343027
2004-07-15 11:31:49 51°7.477 2°11.362 16.629051 4.426827 34.606804 -0.275608
2004-07-15 11:32:48 51°7.61 2°11.388 16.62748 4.427566 34.611355 -0.241899
2004-07-15 11:33:48 51°7.75 2°11.401 16.626205 4.42746 34.607885 -0.275608
2004-07-15 11:34:49 51°7.882 2°11.452 16.640052 4.427144 34.600024 -0.241899
2004-07-15 11:35:48 51°7.945 2°11.515 16.644044 4.426194 34.583448 -0.275608
2004-07-15 11:36:49 51°7.983 2°11.583 16.651688 4.424928 34.571741 -0.208189
2004-07-15 11:37:48 51°8.027 2°11.645 16.678137 4.426616 34.574423 -0.17448
2004-07-15 11:38:49 51°8.078 2°11.706 16.697872 4.426826 34.557213 -0.208189
2004-07-15 11:39:48 51°8.13 2°11.775 16.700036 4.428408 34.553269 -0.241899
2004-07-15 11:40:49 51°8.18 2°11.864 16.712213 4.427986 34.550218 -0.17448
2004-07-15 11:41:48 51°8.222 2°11.964 16.719891 4.428197 34.537478 -0.17448
2004-07-15 11:42:49 51°8.253 2°12.08 16.717813 4.427881 34.532814 -0.275608
2004-07-15 11:43:48 51°8.28 2°12.196 16.715225 4.427775 34.534428 -0.14077
2004-07-15 11:44:49 51°8.304 2°12.311 16.709243 4.427248 34.536794 -0.208189
2004-07-15 11:45:48 51°8.329 2°12.413 16.706443 4.427248 34.540598 -0.208189
2004-07-15 11:46:49 51°8.357 2°12.511 16.705679 4.427353 34.538983 -0.14077
2004-07-15 11:47:48 51°8.384 2°12.604 16.711873 4.427353 34.538983 -0.208189
2004-07-15 11:48:49 51°8.412 2°12.699 16.714249 4.427564 34.53829 -0.17448
2004-07-15 11:49:48 51°8.439 2°12.789 16.714928 4.427564 34.535754 -0.208189
2004-07-15 11:50:49 51°8.466 2°12.882 16.721249 4.42767 34.533507 -0.208189
2004-07-15 11:51:49 51°8.492 2°12.973 16.723709 4.428092 34.532755 -0.208189
2004-07-15 11:52:47 51°8.518 2°13.061 16.72074 4.428302 34.531429 -0.17448
2004-07-15 11:53:48 51°8.546 2°13.153 16.725618 4.428408 34.53425 -0.17448
2004-07-15 11:54:49 51°8.572 2°13.247 16.722352 4.428619 34.534191 -0.14077
2004-07-15 11:55:47 51°8.598 2°13.335 16.726678 4.428408 34.532983 -0.17448
2004-07-15 11:56:49 51°8.627 2°13.426 16.72829 4.428724 34.533212 -0.14077
2004-07-15 11:57:49 51°8.656 2°13.514 16.728248 4.428302 34.530796 -0.17448
2004-07-15 11:58:49 51°8.688 2°13.599 16.733889 4.427881 34.525846 -0.14077
2004-07-15 11:59:48 51°8.72 2°13.682 16.734652 4.428513 34.528837 -0.073352
2004-07-15 12:00:48 51°8.753 2°13.765 16.733889 4.428513 34.52567 -0.073352
2004-07-15 12:01:48 51°8.787 2°13.848 16.730835 4.428408 34.526016 -0.14077
2004-07-15 12:02:49 51°8.821 2°13.931 16.724897 4.427775 34.526825 -0.17448
2004-07-15 12:03:49 51°8.856 2°14.011 16.709922 4.427881 34.531547 -0.208189
2004-07-15 12:04:48 51°8.889 2°14.089 16.69749 4.426932 34.535932 -0.17448
2004-07-15 12:05:49 51°8.925 2°14.167 16.687729 4.426088 34.534902 -0.107061
2004-07-15 12:06:49 51°8.959 2°14.244 16.677628 4.425033 34.538371 -0.14077
2004-07-15 12:07:49 51°8.992 2°14.323 16.679623 4.424506 34.540741 -0.14077
2004-07-15 12:08:48 51°9.025 2°14.4 16.688323 4.424822 34.537796 -0.17448
2004-07-15 12:09:49 51°9.055 2°14.492 16.679792 4.425139 34.538024 -0.17448
2004-07-15 12:10:49 51°9.08 2°14.599 16.674104 4.424612 34.538491 -0.107061
2004-07-15 12:11:49 51°9.101 2°14.713 16.673977 4.423979 34.538671 -0.107061
2004-07-15 12:12:48 51°9.123 2°14.825 16.67351 4.423873 34.537114 -0.107061
2004-07-15 12:13:48 51°9.143 2°14.941 16.669944 4.424084 34.538323 -0.14077
2004-07-15 12:14:47 51°9.163 2°15.055 16.667355 4.423873 34.540922 -0.107061
2004-07-15 12:15:49 51°9.186 2°15.17 16.662133 4.423768 34.541269 -0.107061
2004-07-15 12:16:49 51°9.205 2°15.278 16.664001 4.423557 34.542599 -0.107061
2004-07-15 12:17:49 51°9.222 2°15.384 16.664807 4.423241 34.537929 -0.14077
2004-07-15 12:18:48 51°9.236 2°15.486 16.660774 4.423557 34.541329 -0.14077
2004-07-15 12:19:49 51°9.245 2°15.586 16.657802 4.423662 34.544791 -0.107061
2004-07-15 12:20:49 51°9.251 2°15.676 16.664595 4.423662 34.544791 -0.14077
2004-07-15 12:21:48 51°9.255 2°15.759 16.666081 4.424084 34.547209 -0.107061
2004-07-15 12:22:49 51°9.259 2°15.837 16.670751 4.424084 34.545305 -0.107061
2004-07-15 12:23:49 51°9.263 2°15.91 16.678519 4.424612 34.541663 -0.039642
2004-07-15 12:24:49 51°9.267 2°15.977 16.676736 4.424928 34.543794 -0.073352
2004-07-15 12:25:48 51°9.272 2°16.041 16.665487 4.424717 34.543854 -0.039642
2004-07-15 12:26:49 51°9.278 2°16.107 16.666845 4.424084 34.5434 -0.073352
2004-07-15 12:27:48 51°9.282 2°16.168 16.670539 4.424612 34.546106 -0.073352
2004-07-15 12:28:49 51°9.286 2°16.227 16.678689 4.424612 34.543567 -0.039642
2004-07-15 12:29:49 51°9.29 2°16.283 16.684461 4.425666 34.545804 -0.073352
2004-07-15 12:30:49 51°9.294 2°16.337 16.691761 4.425983 34.543493 -0.005933
2004-07-15 12:31:49 51°9.297 2°16.39 16.687135 4.426193 34.544702 -0.005933
2004-07-15 12:32:48 51°9.301 2°16.442 16.680896 4.426088 34.546953 -0.039642
2004-07-15 12:33:49 51°9.303 2°16.495 16.684249 4.425666 34.543266 0.027777
2004-07-15 12:34:49 51°9.306 2°16.546 16.684843 4.42651 34.55064 -0.107061
2004-07-15 12:35:49 51°9.309 2°16.594 16.684461 4.42651 34.550005 -0.073352
2004-07-15 12:36:49 51°9.304 2°16.642 16.67992 4.426932 34.55623 -0.039642
2004-07-15 12:37:49 51°9.251 2°16.729 16.67143 4.427037 34.558422 -0.039642
2004-07-15 12:38:48 51°9.176 2°16.87 16.641538 4.427249 34.572331 -0.17448
2004-07-15 12:39:48 51°9.09 2°17.054 16.581971 4.426511 34.609129 -0.376736
2004-07-15 12:40:49 51°8.997 2°17.256 16.559057 4.422925 34.615329 -0.477864
2004-07-15 12:41:49 51°8.908 2°17.465 16.55659 4.421871 34.617571 -0.444155
2004-07-15 12:42:49 51°8.821 2°17.679 16.565817 4.422398 34.61645 -0.444155
2004-07-15 12:43:49 51°8.739 2°17.899 16.57602 4.422925 34.618519 -0.444155
2004-07-15 12:44:49 51°8.654 2°18.129 16.610019 4.424929 34.616942 -0.241899
2004-07-15 12:45:49 51°8.565 2°18.36 16.663916 4.426511 34.600214 -0.005933
2004-07-15 12:46:49 51°8.477 2°18.589 16.712001 4.429252 34.575874 0.230033
2004-07-15 12:47:49 51°8.458 2°18.848 16.759373 4.430939 34.550013 0.364871
2004-07-15 12:48:49 51°8.494 2°19.002 16.776457 4.433576 34.541357 0.364871
2004-07-15 12:49:49 51°8.517 2°19.045 16.778831 4.434841 34.541639 0.39858
2004-07-15 12:50:49 51°8.542 2°19.078 16.770099 4.434419 34.542389 0.499708
2004-07-15 12:51:49 51°8.585 2°19.123 16.773448 4.43463 34.54676 0.499708
2004-07-15 12:52:49 51°8.621 2°19.197 16.775397 4.434736 34.547047 0.432289
2004-07-15 12:53:49 51°8.642 2°19.286 16.782264 4.435158 34.548195 0.432289
2004-07-15 12:54:49 51°8.657 2°19.373 16.78078 4.435896 34.549571 0.364871
2004-07-15 12:55:49 51°8.667 2°19.459 16.767047 4.435685 34.551528 0.39858
2004-07-15 12:56:49 51°8.675 2°19.542 16.771455 4.435474 34.554752 0.364871
2004-07-15 12:57:49 51°8.682 2°19.624 16.767895 4.435263 34.554812 0.39858
2004-07-15 12:58:49 51°8.689 2°19.703 16.763528 4.435263 34.555445 0.39858
2004-07-15 12:59:49 51°8.695 2°19.782 16.761917 4.43463 34.55499 0.39858
2004-07-15 13:00:49 51°8.699 2°19.859 16.763994 4.434947 34.555217 0.364871
2004-07-15 13:01:49 51°8.703 2°19.934 16.769166 4.435263 34.554812 0.39858
2004-07-15 13:02:49 51°8.708 2°20.009 16.773405 4.435896 34.5559 0.364871
2004-07-15 13:03:49 51°8.716 2°20.082 16.770438 4.436107 34.55774 0.364871
2004-07-15 13:04:48 51°8.728 2°20.153 16.768827 4.436212 34.560559 0.364871
2004-07-15 13:05:49 51°8.744 2°20.226 16.776076 4.436423 34.561133 0.39858
2004-07-15 13:06:48 51°8.757 2°20.297 16.77633 4.436951 34.561934 0.331161
2004-07-15 13:07:49 51°8.77 2°20.372 16.770268 4.437056 34.566019 0.331161
2004-07-15 13:08:49 51°8.782 2°20.448 16.772218 4.436951 34.567632 0.331161
2004-07-15 13:09:49 51°8.791 2°20.526 16.778195 4.4379 34.568946 0.297452
2004-07-15 13:10:49 51°8.8 2°20.601 16.775864 4.438849 34.578492 0.297452
2004-07-15 13:11:49 51°8.811 2°20.676 16.786163 4.440009 34.584177 0.196324
2004-07-15 13:12:49 51°8.825 2°20.749 16.776838 4.441275 34.591415 0.128905
2004-07-15 13:13:49 51°8.842 2°20.82 16.767047 4.441064 34.600981 0.128905
2004-07-15 13:14:49 51°8.86 2°20.888 16.75878 4.440748 34.606462 0.027777
2004-07-15 13:15:49 51°8.88 2°20.956 16.757423 4.440537 34.60589 -0.005933
2004-07-15 13:16:49 51°8.898 2°21.025 16.756406 4.440432 34.608775 -0.005933
2004-07-15 13:17:49 51°8.916 2°21.088 16.767132 4.440643 34.609347 -0.073352
2004-07-15 13:18:49 51°8.935 2°21.155 16.768107 4.441697 34.609672 -0.073352
2004-07-15 13:19:49 51°8.954 2°21.224 16.765351 4.441803 34.610592 -0.073352
2004-07-15 13:20:49 51°8.974 2°21.291 16.778788 4.442225 34.613004 -0.14077
2004-07-15 13:21:49 51°8.987 2°21.36 16.782391 4.443174 34.613043 -0.14077
2004-07-15 13:22:49 51°8.998 2°21.43 16.775864 4.443385 34.613615 -0.107061
2004-07-15 13:23:49 51°9.007 2°21.499 16.762087 4.442646 34.617319 -0.17448
2004-07-15 13:24:49 51°9.015 2°21.569 16.763104 4.441908 34.617855 -0.241899
2004-07-15 13:25:49 51°9.021 2°21.641 16.766411 4.442436 34.619285 -0.275608
2004-07-15 13:26:49 51°9.025 2°21.706 16.772345 4.443174 34.622555 -0.208189
2004-07-15 13:27:49 51°9.028 2°21.764 16.784213 4.443385 34.619321 -0.275608
2004-07-15 13:28:49 51°9.031 2°21.822 16.793579 4.444439 34.617743 -0.241899
2004-07-15 13:29:49 51°9.048 2°21.884 16.811331 4.445599 34.616452 -0.039642
2004-07-15 13:30:49 51°9.078 2°21.93 16.819888 4.446232 34.6112 -0.005933
2004-07-15 13:31:49 51°9.107 2°21.96 16.826284 4.447181 34.612507 -0.073352
2004-07-15 13:32:49 51°9.133 2°21.983 16.830816 4.447181 34.606177 -0.039642
2004-07-15 13:33:49 51°9.157 2°22.002 16.831705 4.447603 34.606688 -0.107061
2004-07-15 13:34:49 51°9.178 2°22.019 16.835941 4.447919 34.610078 -0.107061
2004-07-15 13:35:49 51°9.203 2°22.031 16.833865 4.44813 34.61065 -0.073352
2004-07-15 13:36:47 51°9.235 2°22.032 16.818448 4.448552 34.616225 -0.17448
2004-07-15 13:37:49 51°9.272 2°22.023 16.785824 4.447076 34.621722 -0.14077
2004-07-15 13:38:49 51°9.306 2°22.005 16.759034 4.444018 34.624842 -0.17448
2004-07-15 13:39:49 51°9.337 2°21.98 16.747078 4.441276 34.621215 -0.107061
2004-07-15 13:40:49 51°9.365 2°21.953 16.748138 4.440959 34.619088 -0.14077
2004-07-15 13:41:49 51°9.387 2°21.921 16.742286 4.440643 34.617595 -0.107061
2004-07-15 13:42:48 51°9.402 2°21.888 16.744788 4.439694 34.614386 -0.039642
2004-07-15 13:43:49 51°9.41 2°21.853 16.743346 4.439588 34.610927 -0.005933
2004-07-15 13:44:55 51°9.408 2°21.82 16.748265 4.439377 34.611624 -0.005933
2004-07-15 13:45:55 51°9.392 2°21.801 16.769463 4.440326 34.608489 -0.005933
2004-07-15 13:46:55 51°9.368 2°21.803 16.779339 4.441486 34.604661 -0.005933
2004-07-15 13:47:55 51°9.33 2°21.854 16.782518 4.442119 34.600674 0.027777
2004-07-15 13:48:55 51°9.354 2°22.023 16.77349 4.441486 34.605295 -0.005933
2004-07-15 13:49:55 51°9.44 2°22.211 16.774677 4.443385 34.612347 -0.14077
2004-07-15 13:50:55 51°9.568 2°22.476 16.760306 4.443068 34.616561 -0.241899
2004-07-15 13:51:55 51°9.713 2°22.777 16.748986 4.441592 34.617631 -0.208189
2004-07-15 13:52:55 51°9.851 2°23.079 16.739826 4.439694 34.616925 -0.275608
2004-07-15 13:53:55 51°9.992 2°23.382 16.72443 4.44001 34.615879 -0.309317
2004-07-15 13:54:55 51°10.136 2°23.69 16.718279 4.438955 34.620002 -0.309317
2004-07-15 13:55:55 51°10.26 2°24.014 16.708649 4.438006 34.618063 -0.275608
2004-07-15 13:56:55 51°10.366 2°24.348 16.700121 4.437163 34.620856 -0.309317
2004-07-15 13:57:55 51°10.476 2°24.677 16.70063 4.436741 34.622254 -0.343027
2004-07-15 13:58:55 51°10.578 2°25.008 16.703727 4.437057 34.625654 -0.309317
2004-07-15 13:59:55 51°10.674 2°25.347 16.709625 4.438006 34.622509 -0.309317
2004-07-15 14:00:55 51°10.764 2°25.687 16.73075 4.438006 34.624415 -0.343027
2004-07-15 14:01:55 51°10.854 2°26.035 16.733592 4.439483 34.623972 -0.376736
2004-07-15 14:02:55 51°10.94 2°26.379 16.728078 4.44117 34.625372 -0.410446
2004-07-15 14:03:55 51°11.031 2°26.722 16.732532 4.439377 34.625591 -0.343027
2004-07-15 14:05:00 51°11.129 2°27.094 16.733125 4.440854 34.623245 -0.376736
2004-07-15 14:05:59 51°11.214 2°27.434 16.72706 4.439905 34.627021 -0.309317
2004-07-15 14:06:59 51°11.303 2°27.777 16.718279 4.439694 34.627084 -0.343027
2004-07-15 14:07:59 51°11.393 2°28.122 16.717685 4.438428 34.626194 -0.275608
2004-07-15 14:08:59 51°11.472 2°28.477 16.67351 4.43769 34.628006 -0.275608
2004-07-15 14:09:59 51°11.551 2°28.829 16.662557 4.434526 34.627694 -0.241899
2004-07-15 14:10:59 51°11.633 2°29.179 16.675505 4.434421 34.630589 -0.241899
2004-07-15 14:12:00 51°11.718 2°29.533 16.683061 4.43537 34.628709 -0.208189
2004-07-15 14:13:00 51°11.798 2°29.882 16.700036 4.43653 34.62486 -0.208189
2004-07-15 14:13:59 51°11.879 2°30.223 16.714334 4.437268 34.627498 -0.241899
2004-07-15 14:14:59 51°11.965 2°30.57 16.72689 4.438217 34.625622 -0.309317
2004-07-15 14:15:59 51°12.048 2°30.92 16.748604 4.439272 34.6234 -0.241899
2004-07-15 14:17:00 51°12.131 2°31.272 16.764291 4.440959 34.615915 -0.241899
2004-07-15 14:18:00 51°12.214 2°31.622 16.794723 4.442541 34.614497 -0.14077
2004-07-15 14:18:59 51°12.297 2°31.963 16.791714 4.444017 34.611528 -0.17448
2004-07-15 14:20:00 51°12.384 2°32.31 16.778152 4.443806 34.610956 -0.208189
2004-07-15 14:20:59 51°12.468 2°32.644 16.783832 4.443174 34.605437 -0.241899
2004-07-15 14:22:00 51°12.561 2°32.991 16.787985 4.442857 34.603945 -0.208189
2004-07-15 14:23:00 51°12.655 2°33.33 16.776754 4.443806 34.607154 -0.208189
2004-07-15 14:23:59 51°12.749 2°33.663 16.791841 4.443279 34.609525 -0.275608
2004-07-15 14:24:59 51°12.845 2°34.004 16.787349 4.443596 34.612285 -0.241899
2004-07-15 14:26:00 51°12.946 2°34.356 16.801841 4.444439 34.610138 -0.208189
2004-07-15 14:27:00 51°13.045 2°34.7 16.816373 4.44581 34.609422 -0.208189
2004-07-15 14:28:00 51°13.144 2°35.041 16.820397 4.446759 34.61073 -0.17448
2004-07-15 14:29:00 51°13.237 2°35.377 16.830731 4.446865 34.608484 -0.107061
2004-07-15 14:29:59 51°13.339 2°35.705 16.842377 4.44813 34.611283 -0.107061
2004-07-15 14:31:00 51°13.445 2°36.041 16.851735 4.449185 34.609713 -0.005933
2004-07-15 14:31:59 51°13.546 2°36.367 16.85762 4.449923 34.607287 -0.039642
2004-07-15 14:32:58 51°13.646 2°36.687 16.860456 4.449607 34.597577 -0.039642
2004-07-15 14:34:00 51°13.751 2°37.025 16.850634 4.448446 34.593796 -0.17448
2004-07-15 14:34:59 51°13.852 2°37.347 16.841319 4.447814 34.596505 -0.14077
2004-07-15 14:35:59 51°13.953 2°37.676 16.824548 4.447392 34.602319 -0.17448
2004-07-15 14:37:00 51°14.052 2°38.01 16.816542 4.446443 34.602908 -0.208189
2004-07-15 14:38:00 51°14.15 2°38.334 16.81777 4.446443 34.601009 -0.241899
2004-07-15 14:38:59 51°14.247 2°38.656 16.844283 4.445704 34.595209 -0.241899
2004-07-15 14:40:00 51°14.295 2°39.011 16.856434 4.446864 34.582548 -0.17448
2004-07-15 14:40:58 51°14.306 2°39.355 16.884159 4.447708 34.573468 -0.073352
2004-07-15 14:42:00 51°14.314 2°39.726 16.912253 4.448762 34.561816 -0.005933
2004-07-15 14:42:59 51°14.328 2°40.083 16.935473 4.451188 34.55958 -0.039642
2004-07-15 14:44:00 51°14.336 2°40.449 16.94968 4.452453 34.559869 -0.039642
2004-07-15 14:45:00 51°14.349 2°40.809 16.970943 4.454035 34.55598 -0.039642
2004-07-15 14:46:00 51°14.36 2°41.171 16.987298 4.455828 34.555187 -0.039642
2004-07-15 14:46:59 51°14.373 2°41.527 17.010154 4.458148 34.557089 -0.005933
2004-07-15 14:47:59 51°14.361 2°41.887 17.050821 4.459203 34.548011 -0.039642
2004-07-15 14:49:00 51°14.346 2°42.257 17.085472 4.463843 34.540536 -0.039642
2004-07-15 14:50:00 51°14.349 2°42.621 17.082181 4.46437 34.53758 -0.17448
2004-07-15 14:50:59 51°14.375 2°42.975 17.097708 4.465108 34.534572 -0.17448
2004-07-15 14:51:59 51°14.398 2°43.33 17.10547 4.463948 34.52515 -0.241899
2004-07-15 14:52:59 51°14.417 2°43.69 17.149495 4.464159 34.501933 -0.309317
2004-07-15 14:53:59 51°14.436 2°44.05 17.194461 4.466901 34.486899 -0.309317
2004-07-15 14:55:00 51°14.458 2°44.411 17.228703 4.469115 34.474837 -0.343027
2004-07-15 14:55:59 51°14.479 2°44.756 17.260656 4.472173 34.468217 -0.376736
2004-07-15 14:57:00 51°14.5 2°45.113 17.262424 4.473966 34.469369 -0.376736
2004-07-15 14:57:59 51°14.52 2°45.453 17.254132 4.474388 34.476122 -0.343027
2004-07-15 14:58:59 51°14.56 2°45.79 17.227103 4.472595 34.479958 -0.309317
2004-07-15 15:00:00 51°14.592 2°46.146 17.227651 4.471541 34.478331 -0.309317
2004-07-15 15:00:59 51°14.631 2°46.495 17.281318 4.473017 34.477992 -0.309317
2004-07-15 15:02:00 51°14.619 2°46.856 17.210174 4.477236 34.48388 -0.309317
2004-07-15 15:03:00 51°14.605 2°47.211 17.164501 4.47133 34.505831 -0.241899
2004-07-15 15:04:00 51°14.593 2°47.562 17.167367 4.46901 34.507012 -0.241899
2004-07-15 15:04:59 51°14.581 2°47.905 17.173731 4.468694 34.498029 -0.309317
2004-07-15 15:05:59 51°14.572 2°48.26 17.198885 4.468377 34.486552 -0.275608
2004-07-15 15:07:00 51°14.566 2°48.625 17.226767 4.468693 34.468699 -0.275608
2004-07-15 15:07:59 51°14.564 2°48.975 17.285484 4.471118 34.451022 -0.309317
2004-07-15 15:08:59 51°14.562 2°49.33 17.333682 4.471223 34.414637 -0.208189
2004-07-15 15:09:59 51°14.555 2°49.681 17.366931 4.474703 34.40182 -0.208189
2004-07-15 15:11:00 51°14.552 2°50.04 17.392603 4.475969 34.389796 -0.073352
2004-07-15 15:12:00 51°14.551 2°50.389 17.417971 4.477867 34.381379 0.061486
2004-07-15 15:13:00 51°14.547 2°50.74 17.434346 4.479238 34.377095 0.162614
2004-07-15 15:14:00 51°14.541 2°51.091 17.444211 4.47966 34.373307 0.162614
2004-07-15 15:14:59 51°14.535 2°51.435 17.445638 4.480925 34.368743 0.196324
2004-07-15 15:15:59 51°14.532 2°51.785 17.440055 4.480292 34.365159 0.230033
2004-07-15 15:16:59 51°14.528 2°52.134 17.444883 4.479132 34.357663 0.230033
2004-07-15 15:17:59 51°14.523 2°52.484 17.458356 4.478183 34.34334 0.230033
2004-07-15 15:18:59 51°14.516 2°52.834 17.481812 4.478393 34.331588 0.162614
2004-07-15 15:20:00 51°14.511 2°53.188 17.511718 4.478815 34.316116 0.128905
2004-07-15 15:20:59 51°14.518 2°53.533 17.509076 4.476705 34.288792 0.162614
2004-07-15 15:22:00 51°14.514 2°53.892 17.485336 4.468267 34.216437 0.263742
2004-07-15 15:22:59 51°14.511 2°54.24 17.544378 4.461411 34.170533 0.331161
2004-07-15 15:23:59 51°14.466 2°54.573 17.633098 4.460988 34.127739 0.499708
2004-07-15 15:25:00 51°14.401 2°54.896 17.841799 4.423754 33.719743 -0.477864
2004-07-15 15:25:59 51°14.303 2°55.188 17.844345 4.423859 33.717031 -0.545283
2004-07-15 15:26:59 51°14.17 2°55.379 17.894574 4.424809 33.726933 -0.545283